IBE54T LEPA-LFMN
Flight info
| Callsign | IBE54T |
|---|---|
| Flight time | 1h 0m |
| Altitude | 30000 |
| Route | MEROS N853 LUMAS DCT SOFFY DCT MRM DCT ABLAK |
| Aircraft | A320/M-SDE3FGHIRWY/LB1 |
Departure
| Time | 2026-05-07 20:09 |
|---|---|
| Airport | Palma de Mallorca Airport (LEPA) |
Arrival
| Time | 2026-05-07 21:09 |
|---|---|
| Airport | Nice-Côte d'Azur Airport (LFMN) |
| Time | Latitude | Longitude | Altitude | Speed | Heading |
|---|---|---|---|---|---|
| 2026-05-07 19:31 | 39.55042 | 2.73534 | 26 ft | 0 kts | 171° |
| 2026-05-07 19:56 | 39.55053 | 2.73532 | 30 ft | 2 kts | 163° |
| 2026-05-07 19:56 | 39.55069 | 2.73526 | 27 ft | 2 kts | 158° |
| 2026-05-07 19:56 | 39.55084 | 2.73518 | 27 ft | 2 kts | 148° |
| 2026-05-07 19:57 | 39.55098 | 2.73505 | 30 ft | 2 kts | 130° |
| 2026-05-07 19:57 | 39.55107 | 2.73488 | 29 ft | 2 kts | 106° |
| 2026-05-07 19:57 | 39.55110 | 2.73467 | 29 ft | 2 kts | 82° |
| 2026-05-07 19:57 | 39.55107 | 2.73449 | 28 ft | 1 kts | 63° |
| 2026-05-07 19:58 | 39.55106 | 2.73445 | 28 ft | 0 kts | 58° |
| 2026-05-07 20:02 | 39.55116 | 2.73467 | 25 ft | 9 kts | 58° |
| 2026-05-07 20:03 | 39.55163 | 2.73566 | 26 ft | 15 kts | 58° |
| 2026-05-07 20:03 | 39.55165 | 2.73645 | 26 ft | 6 kts | 131° |
| 2026-05-07 20:03 | 39.55178 | 2.73706 | 25 ft | 13 kts | 71° |
| 2026-05-07 20:03 | 39.55111 | 2.73795 | 26 ft | 19 kts | 149° |
| 2026-05-07 20:04 | 39.54982 | 2.73896 | 28 ft | 22 kts | 149° |
| 2026-05-07 20:04 | 39.54870 | 2.73981 | 29 ft | 16 kts | 150° |
| 2026-05-07 20:04 | 39.54792 | 2.73955 | 30 ft | 12 kts | 229° |
| 2026-05-07 20:04 | 39.54728 | 2.73956 | 30 ft | 9 kts | 178° |
| 2026-05-07 20:05 | 39.54656 | 2.73848 | 31 ft | 22 kts | 239° |
| 2026-05-07 20:05 | 39.54581 | 2.73694 | 32 ft | 19 kts | 238° |
| 2026-05-07 20:05 | 39.54518 | 2.73559 | 33 ft | 16 kts | 239° |
| 2026-05-07 20:05 | 39.54465 | 2.73443 | 33 ft | 14 kts | 238° |
| 2026-05-07 20:06 | 39.54419 | 2.73345 | 34 ft | 12 kts | 238° |
| 2026-05-07 20:06 | 39.54376 | 2.73254 | 35 ft | 17 kts | 238° |
| 2026-05-07 20:06 | 39.54293 | 2.73092 | 35 ft | 13 kts | 222° |
| 2026-05-07 20:06 | 39.54202 | 2.73130 | 36 ft | 19 kts | 149° |
| 2026-05-07 20:07 | 39.54149 | 2.73222 | 36 ft | 6 kts | 62° |
| 2026-05-07 20:07 | 39.54171 | 2.73275 | 35 ft | 0 kts | 58° |
| 2026-05-07 20:07 | 39.54174 | 2.73281 | 35 ft | 5 kts | 58° |
| 2026-05-07 20:08 | 39.54232 | 2.73403 | 34 ft | 50 kts | 58° |
| 2026-05-07 20:08 | 39.54541 | 2.74051 | 32 ft | 116 kts | 58° |
| 2026-05-07 20:08 | 39.55060 | 2.75142 | 57 ft | 163 kts | 58° |
| 2026-05-07 20:08 | 39.55664 | 2.76439 | 580 ft | 171 kts | 58° |
| 2026-05-07 20:09 | 39.56270 | 2.77782 | 1279 ft | 176 kts | 60° |
| 2026-05-07 20:09 | 39.56918 | 2.79211 | 1698 ft | 191 kts | 59° |
| 2026-05-07 20:09 | 39.57613 | 2.80739 | 2160 ft | 204 kts | 60° |
| 2026-05-07 20:10 | 39.59090 | 2.83982 | 3626 ft | 213 kts | 60° |
| 2026-05-07 20:10 | 39.59845 | 2.85637 | 4498 ft | 215 kts | 59° |
| 2026-05-07 20:10 | 39.60608 | 2.87312 | 5282 ft | 218 kts | 60° |
| 2026-05-07 20:10 | 39.61385 | 2.89014 | 6056 ft | 221 kts | 60° |
| 2026-05-07 20:11 | 39.62174 | 2.90741 | 6821 ft | 225 kts | 60° |
| 2026-05-07 20:11 | 39.62997 | 2.92594 | 7211 ft | 249 kts | 61° |
| 2026-05-07 20:11 | 39.63883 | 2.94639 | 7714 ft | 268 kts | 62° |
| 2026-05-07 20:11 | 39.64804 | 2.96779 | 8502 ft | 274 kts | 61° |
| 2026-05-07 20:12 | 39.65742 | 2.98952 | 9381 ft | 279 kts | 62° |
| 2026-05-07 20:12 | 39.66700 | 3.01167 | 10193 ft | 286 kts | 62° |
| 2026-05-07 20:12 | 39.67712 | 3.03508 | 10502 ft | 309 kts | 61° |
| 2026-05-07 20:12 | 39.68792 | 3.06002 | 11017 ft | 322 kts | 62° |
| 2026-05-07 20:13 | 39.69899 | 3.08561 | 11773 ft | 328 kts | 62° |
| 2026-05-07 20:13 | 39.71025 | 3.11166 | 12543 ft | 332 kts | 62° |
| 2026-05-07 20:13 | 39.72163 | 3.13798 | 13301 ft | 336 kts | 62° |
| 2026-05-07 20:13 | 39.73314 | 3.16463 | 14063 ft | 340 kts | 62° |
| 2026-05-07 20:14 | 39.74472 | 3.19159 | 14756 ft | 344 kts | 62° |
| 2026-05-07 20:14 | 39.75648 | 3.21896 | 15407 ft | 348 kts | 62° |
| 2026-05-07 20:14 | 39.76837 | 3.24657 | 15849 ft | 352 kts | 62° |
| 2026-05-07 20:14 | 39.78222 | 3.27296 | 15969 ft | 355 kts | 51° |
| 2026-05-07 20:15 | 39.79842 | 3.29725 | 16003 ft | 355 kts | 50° |
| 2026-05-07 20:15 | 39.81463 | 3.32145 | 16006 ft | 355 kts | 50° |
| 2026-05-07 20:15 | 39.83081 | 3.34564 | 16000 ft | 354 kts | 50° |
| 2026-05-07 20:15 | 39.84698 | 3.36986 | 16004 ft | 354 kts | 50° |
| 2026-05-07 20:16 | 39.86309 | 3.39404 | 15999 ft | 354 kts | 50° |
| 2026-05-07 20:16 | 39.87917 | 3.41820 | 16004 ft | 353 kts | 50° |
| 2026-05-07 20:16 | 39.89506 | 3.44212 | 16005 ft | 353 kts | 50° |
| 2026-05-07 20:16 | 39.91139 | 3.46676 | 16196 ft | 357 kts | 51° |
| 2026-05-07 20:17 | 39.92762 | 3.49128 | 16883 ft | 359 kts | 51° |
| 2026-05-07 20:17 | 39.94402 | 3.51603 | 17527 ft | 363 kts | 51° |
| 2026-05-07 20:17 | 39.96061 | 3.54105 | 18161 ft | 367 kts | 51° |
| 2026-05-07 20:17 | 39.97740 | 3.56647 | 18729 ft | 371 kts | 51° |
| 2026-05-07 20:18 | 39.99429 | 3.59201 | 19246 ft | 376 kts | 51° |
| 2026-05-07 20:18 | 40.01127 | 3.61765 | 19745 ft | 381 kts | 51° |
| 2026-05-07 20:18 | 40.02887 | 3.64435 | 20248 ft | 386 kts | 51° |
| 2026-05-07 20:18 | 40.04648 | 3.67108 | 20745 ft | 391 kts | 50° |
| 2026-05-07 20:19 | 40.06412 | 3.69777 | 21235 ft | 396 kts | 50° |
| 2026-05-07 20:19 | 40.08245 | 3.72550 | 21743 ft | 400 kts | 50° |
| 2026-05-07 20:19 | 40.10048 | 3.75286 | 22225 ft | 405 kts | 50° |
| 2026-05-07 20:19 | 40.11897 | 3.78099 | 22703 ft | 411 kts | 50° |
| 2026-05-07 20:20 | 40.13770 | 3.80951 | 23177 ft | 416 kts | 50° |
| 2026-05-07 20:20 | 40.15667 | 3.83841 | 23640 ft | 421 kts | 49° |
| 2026-05-07 20:20 | 40.17582 | 3.86762 | 24061 ft | 425 kts | 50° |
| 2026-05-07 20:20 | 40.19508 | 3.89707 | 24481 ft | 428 kts | 50° |
| 2026-05-07 20:21 | 40.21450 | 3.92683 | 24895 ft | 431 kts | 50° |
| 2026-05-07 20:21 | 40.23404 | 3.95676 | 25300 ft | 434 kts | 50° |
| 2026-05-07 20:21 | 40.25372 | 3.98690 | 25702 ft | 437 kts | 50° |
| 2026-05-07 20:21 | 40.27348 | 4.01721 | 26093 ft | 440 kts | 50° |
| 2026-05-07 20:22 | 40.29342 | 4.04780 | 26472 ft | 443 kts | 50° |
| 2026-05-07 20:22 | 40.31350 | 4.07858 | 26867 ft | 446 kts | 50° |
| 2026-05-07 20:22 | 40.33371 | 4.10956 | 27247 ft | 449 kts | 50° |
| 2026-05-07 20:22 | 40.35406 | 4.14078 | 27616 ft | 451 kts | 50° |
| 2026-05-07 20:23 | 40.37450 | 4.17219 | 27980 ft | 454 kts | 50° |
| 2026-05-07 20:23 | 40.39506 | 4.20386 | 28337 ft | 457 kts | 50° |
| 2026-05-07 20:23 | 40.41567 | 4.23572 | 28677 ft | 460 kts | 50° |
| 2026-05-07 20:23 | 40.43637 | 4.26782 | 29020 ft | 463 kts | 50° |
| 2026-05-07 20:24 | 40.45725 | 4.30023 | 29349 ft | 465 kts | 50° |
| 2026-05-07 20:24 | 40.48005 | 4.33064 | 29667 ft | 469 kts | 40° |
| 2026-05-07 20:24 | 40.50677 | 4.35529 | 29938 ft | 471 kts | 28° |
| 2026-05-07 20:24 | 40.53634 | 4.37288 | 29998 ft | 460 kts | 17° |
| 2026-05-07 20:25 | 40.56667 | 4.38278 | 29992 ft | 443 kts | 7° |
| 2026-05-07 20:25 | 40.62694 | 4.39673 | 29996 ft | 438 kts | 8° |
| 2026-05-07 20:26 | 40.68677 | 4.41107 | 29998 ft | 437 kts | 8° |
| 2026-05-07 20:26 | 40.74659 | 4.42563 | 29996 ft | 437 kts | 8° |
| 2026-05-07 20:27 | 40.80641 | 4.44007 | 29999 ft | 437 kts | 8° |
| 2026-05-07 20:27 | 40.86629 | 4.45449 | 29999 ft | 437 kts | 8° |
| 2026-05-07 20:28 | 40.92614 | 4.46891 | 29996 ft | 437 kts | 8° |
| 2026-05-07 20:28 | 40.98587 | 4.48336 | 29994 ft | 437 kts | 8° |
| 2026-05-07 20:29 | 41.04569 | 4.49791 | 29992 ft | 437 kts | 8° |
| 2026-05-07 20:29 | 41.10503 | 4.51239 | 29986 ft | 437 kts | 8° |
| 2026-05-07 20:30 | 41.16480 | 4.52696 | 29995 ft | 436 kts | 8° |
| 2026-05-07 20:30 | 41.22453 | 4.54139 | 29996 ft | 436 kts | 7° |
| 2026-05-07 20:31 | 41.28425 | 4.55594 | 29992 ft | 436 kts | 8° |
| 2026-05-07 20:31 | 41.34395 | 4.57064 | 29993 ft | 436 kts | 8° |
| 2026-05-07 20:32 | 41.40374 | 4.58527 | 29992 ft | 436 kts | 8° |
| 2026-05-07 20:32 | 41.46347 | 4.59990 | 29999 ft | 436 kts | 8° |
| 2026-05-07 20:33 | 41.52310 | 4.61463 | 30001 ft | 436 kts | 8° |
| 2026-05-07 20:33 | 41.58273 | 4.62943 | 29995 ft | 436 kts | 8° |
| 2026-05-07 20:34 | 41.64244 | 4.64418 | 29992 ft | 436 kts | 8° |
| 2026-05-07 20:34 | 41.70214 | 4.65891 | 29990 ft | 436 kts | 8° |
| 2026-05-07 20:35 | 41.76131 | 4.67750 | 29988 ft | 438 kts | 14° |
| 2026-05-07 20:35 | 41.81983 | 4.70053 | 29984 ft | 439 kts | 14° |
| 2026-05-07 20:36 | 41.87847 | 4.72361 | 29985 ft | 439 kts | 14° |
| 2026-05-07 20:36 | 41.93722 | 4.74669 | 29980 ft | 439 kts | 14° |
| 2026-05-07 20:37 | 41.99554 | 4.76961 | 29981 ft | 440 kts | 14° |
| 2026-05-07 20:37 | 42.05465 | 4.79285 | 29977 ft | 440 kts | 14° |
| 2026-05-07 20:38 | 42.11300 | 4.81593 | 29980 ft | 440 kts | 14° |
| 2026-05-07 20:38 | 42.17185 | 4.83921 | 29985 ft | 441 kts | 14° |
| 2026-05-07 20:39 | 42.23067 | 4.86255 | 29984 ft | 441 kts | 14° |
| 2026-05-07 20:39 | 42.28948 | 4.88607 | 29985 ft | 441 kts | 14° |
| 2026-05-07 20:40 | 42.34827 | 4.90951 | 29986 ft | 441 kts | 14° |
| 2026-05-07 20:40 | 42.40711 | 4.93283 | 29992 ft | 440 kts | 14° |
| 2026-05-07 20:41 | 42.46589 | 4.95626 | 29998 ft | 440 kts | 14° |
| 2026-05-07 20:41 | 42.52459 | 4.97991 | 30002 ft | 440 kts | 14° |
| 2026-05-07 20:42 | 42.58321 | 5.00350 | 30001 ft | 439 kts | 14° |
| 2026-05-07 20:42 | 42.64181 | 5.02709 | 29999 ft | 439 kts | 14° |
| 2026-05-07 20:43 | 42.70032 | 5.05067 | 30000 ft | 438 kts | 14° |
| 2026-05-07 20:43 | 42.75880 | 5.07427 | 29996 ft | 438 kts | 14° |
| 2026-05-07 20:44 | 42.81720 | 5.09791 | 30000 ft | 438 kts | 14° |
| 2026-05-07 20:44 | 42.87548 | 5.12154 | 30000 ft | 437 kts | 14° |
| 2026-05-07 20:45 | 42.93375 | 5.14520 | 30000 ft | 437 kts | 14° |
| 2026-05-07 20:45 | 42.96325 | 5.15720 | 30006 ft | 448 kts | 14° |
| 2026-05-07 20:45 | 42.99357 | 5.16951 | 30004 ft | 460 kts | 14° |
| 2026-05-07 20:46 | 43.05571 | 5.19477 | 30006 ft | 469 kts | 14° |
| 2026-05-07 20:46 | 43.11831 | 5.22028 | 30005 ft | 469 kts | 14° |
| 2026-05-07 20:47 | 43.18051 | 5.24577 | 30000 ft | 470 kts | 14° |
| 2026-05-07 20:47 | 43.24199 | 5.27102 | 29889 ft | 448 kts | 13° |
| 2026-05-07 20:47 | 43.27130 | 5.28312 | 29734 ft | 435 kts | 13° |
| 2026-05-07 20:48 | 43.30002 | 5.29494 | 29410 ft | 427 kts | 13° |
| 2026-05-07 20:48 | 43.32829 | 5.30650 | 28989 ft | 422 kts | 13° |
| 2026-05-07 20:48 | 43.35632 | 5.31794 | 28532 ft | 418 kts | 14° |
| 2026-05-07 20:48 | 43.38311 | 5.33307 | 28104 ft | 418 kts | 28° |
| 2026-05-07 20:49 | 43.40766 | 5.35452 | 27658 ft | 416 kts | 31° |
| 2026-05-07 20:49 | 43.43219 | 5.37639 | 27216 ft | 413 kts | 31° |
| 2026-05-07 20:49 | 43.45590 | 5.39756 | 26789 ft | 410 kts | 31° |
| 2026-05-07 20:49 | 43.47926 | 5.41980 | 26375 ft | 408 kts | 39° |
| 2026-05-07 20:50 | 43.49887 | 5.44777 | 25973 ft | 405 kts | 53° |
| 2026-05-07 20:50 | 43.51325 | 5.48082 | 25551 ft | 402 kts | 67° |
| 2026-05-07 20:50 | 43.52352 | 5.51647 | 25118 ft | 399 kts | 70° |
| 2026-05-07 20:50 | 43.53350 | 5.55204 | 24711 ft | 396 kts | 70° |
| 2026-05-07 20:51 | 43.54337 | 5.58734 | 24311 ft | 393 kts | 70° |
| 2026-05-07 20:51 | 43.55315 | 5.62232 | 23897 ft | 390 kts | 70° |
| 2026-05-07 20:51 | 43.56283 | 5.65711 | 23480 ft | 387 kts | 71° |
| 2026-05-07 20:51 | 43.56904 | 5.69286 | 23042 ft | 381 kts | 85° |
| 2026-05-07 20:52 | 43.57144 | 5.72909 | 22616 ft | 377 kts | 86° |
| 2026-05-07 20:52 | 43.57377 | 5.76491 | 22195 ft | 374 kts | 86° |
| 2026-05-07 20:52 | 43.57615 | 5.80048 | 21782 ft | 372 kts | 86° |
| 2026-05-07 20:52 | 43.57856 | 5.83611 | 21126 ft | 371 kts | 86° |
| 2026-05-07 20:53 | 43.58092 | 5.87118 | 20494 ft | 363 kts | 86° |
| 2026-05-07 20:53 | 43.58243 | 5.89405 | 20079 ft | 359 kts | 86° |
| 2026-05-07 20:53 | 43.58469 | 5.92810 | 19468 ft | 354 kts | 86° |
| 2026-05-07 20:53 | 43.58693 | 5.96163 | 18874 ft | 351 kts | 86° |
| 2026-05-07 20:54 | 43.58912 | 5.99538 | 18283 ft | 356 kts | 86° |
| 2026-05-07 20:54 | 43.59128 | 6.02958 | 17613 ft | 361 kts | 86° |
| 2026-05-07 20:54 | 43.59347 | 6.06427 | 16951 ft | 365 kts | 86° |
| 2026-05-07 20:54 | 43.59339 | 6.09929 | 16298 ft | 366 kts | 98° |
| 2026-05-07 20:55 | 43.58716 | 6.13325 | 15666 ft | 367 kts | 112° |
| 2026-05-07 20:55 | 43.57807 | 6.16621 | 15048 ft | 369 kts | 112° |
| 2026-05-07 20:55 | 43.56891 | 6.19935 | 14435 ft | 370 kts | 112° |
| 2026-05-07 20:55 | 43.55975 | 6.23249 | 13832 ft | 370 kts | 112° |
| 2026-05-07 20:56 | 43.55057 | 6.26571 | 13165 ft | 370 kts | 112° |
| 2026-05-07 20:56 | 43.53854 | 6.29643 | 12907 ft | 357 kts | 125° |
| 2026-05-07 20:56 | 43.52481 | 6.32420 | 12756 ft | 342 kts | 125° |
| 2026-05-07 20:56 | 43.51192 | 6.35042 | 12621 ft | 318 kts | 125° |
| 2026-05-07 20:57 | 43.49985 | 6.37495 | 12281 ft | 303 kts | 125° |
| 2026-05-07 20:57 | 43.48807 | 6.39881 | 11875 ft | 300 kts | 125° |
| 2026-05-07 20:57 | 43.47636 | 6.42240 | 11555 ft | 297 kts | 125° |
| 2026-05-07 20:57 | 43.46472 | 6.44576 | 11222 ft | 295 kts | 125° |
| 2026-05-07 20:58 | 43.45314 | 6.46898 | 10876 ft | 293 kts | 125° |
| 2026-05-07 20:58 | 43.44176 | 6.49180 | 10330 ft | 293 kts | 124° |
| 2026-05-07 20:58 | 43.43033 | 6.51474 | 9688 ft | 289 kts | 124° |
| 2026-05-07 20:58 | 43.41904 | 6.53739 | 9053 ft | 285 kts | 124° |
| 2026-05-07 20:59 | 43.40792 | 6.55969 | 8406 ft | 281 kts | 124° |
| 2026-05-07 20:59 | 43.39746 | 6.58248 | 7761 ft | 276 kts | 115° |
| 2026-05-07 20:59 | 43.39164 | 6.60702 | 7146 ft | 272 kts | 99° |
| 2026-05-07 20:59 | 43.39114 | 6.63277 | 6534 ft | 268 kts | 82° |
| 2026-05-07 21:00 | 43.39548 | 6.65747 | 5905 ft | 265 kts | 73° |
| 2026-05-07 21:00 | 43.40068 | 6.68169 | 5264 ft | 263 kts | 74° |
| 2026-05-07 21:00 | 43.40576 | 6.70577 | 4649 ft | 261 kts | 74° |
| 2026-05-07 21:00 | 43.41075 | 6.72954 | 4146 ft | 253 kts | 74° |
| 2026-05-07 21:01 | 43.41542 | 6.75184 | 4033 ft | 234 kts | 74° |
| 2026-05-07 21:01 | 43.41991 | 6.77322 | 4063 ft | 232 kts | 74° |
| 2026-05-07 21:01 | 43.42421 | 6.79373 | 4080 ft | 216 kts | 74° |
| 2026-05-07 21:01 | 43.42848 | 6.81412 | 4026 ft | 227 kts | 74° |
| 2026-05-07 21:02 | 43.43287 | 6.83520 | 4045 ft | 230 kts | 74° |
| 2026-05-07 21:02 | 43.43731 | 6.85641 | 4064 ft | 232 kts | 74° |
| 2026-05-07 21:02 | 43.44177 | 6.87776 | 4049 ft | 232 kts | 74° |
| 2026-05-07 21:02 | 43.44623 | 6.89905 | 4064 ft | 232 kts | 74° |
| 2026-05-07 21:03 | 43.45073 | 6.92027 | 4070 ft | 228 kts | 72° |
| 2026-05-07 21:03 | 43.45804 | 6.93870 | 4063 ft | 213 kts | 50° |
| 2026-05-07 21:03 | 43.46806 | 6.95273 | 4060 ft | 198 kts | 45° |
| 2026-05-07 21:03 | 43.47769 | 6.96581 | 4052 ft | 192 kts | 45° |
| 2026-05-07 21:04 | 43.48717 | 6.97872 | 4064 ft | 191 kts | 45° |
| 2026-05-07 21:04 | 43.49660 | 6.99158 | 4106 ft | 191 kts | 45° |
| 2026-05-07 21:04 | 43.50606 | 7.00447 | 3993 ft | 191 kts | 45° |
| 2026-05-07 21:04 | 43.51548 | 7.01734 | 3785 ft | 190 kts | 45° |
| 2026-05-07 21:05 | 43.52487 | 7.03014 | 3548 ft | 189 kts | 45° |
| 2026-05-07 21:05 | 43.53419 | 7.04288 | 3306 ft | 189 kts | 45° |
| 2026-05-07 21:05 | 43.54344 | 7.05552 | 3054 ft | 185 kts | 45° |
| 2026-05-07 21:05 | 43.55239 | 7.06775 | 2810 ft | 177 kts | 45° |
| 2026-05-07 21:06 | 43.56095 | 7.07946 | 2573 ft | 169 kts | 45° |
| 2026-05-07 21:06 | 43.56885 | 7.09026 | 2369 ft | 152 kts | 45° |
| 2026-05-07 21:06 | 43.57616 | 7.10026 | 2170 ft | 145 kts | 45° |
| 2026-05-07 21:06 | 43.58319 | 7.10990 | 1975 ft | 141 kts | 45° |
| 2026-05-07 21:07 | 43.59008 | 7.11933 | 1787 ft | 139 kts | 45° |
| 2026-05-07 21:07 | 43.59690 | 7.12867 | 1593 ft | 138 kts | 45° |
| 2026-05-07 21:07 | 43.60368 | 7.13796 | 1409 ft | 137 kts | 45° |
| 2026-05-07 21:07 | 43.61044 | 7.14724 | 1228 ft | 137 kts | 45° |
| 2026-05-07 21:08 | 43.61718 | 7.15649 | 1043 ft | 137 kts | 45° |
| 2026-05-07 21:08 | 43.62391 | 7.16572 | 852 ft | 136 kts | 44° |
| 2026-05-07 21:08 | 43.63061 | 7.17492 | 674 ft | 136 kts | 44° |
| 2026-05-07 21:08 | 43.63730 | 7.18408 | 498 ft | 136 kts | 43° |
| 2026-05-07 21:09 | 43.64395 | 7.19337 | 295 ft | 136 kts | 43° |
| 2026-05-07 21:09 | 43.65068 | 7.20253 | 99 ft | 136 kts | 43° |
| 2026-05-07 21:09 | 43.65709 | 7.21129 | 22 ft | 110 kts | 45° |
| 2026-05-07 21:09 | 43.66037 | 7.21581 | 17 ft | 36 kts | 45° |
| 2026-05-07 21:10 | 43.66168 | 7.21748 | 21 ft | 21 kts | 18° |
| 2026-05-07 21:10 | 43.66266 | 7.21685 | 17 ft | 12 kts | 314° |
| 2026-05-07 21:10 | 43.66272 | 7.21677 | 17 ft | 0 kts | 314° |
| 2026-05-07 21:10 | 43.66273 | 7.21676 | 17 ft | 2 kts | 314° |
| 2026-05-07 21:11 | 43.66314 | 7.21617 | 17 ft | 15 kts | 314° |
| 2026-05-07 21:11 | 43.66368 | 7.21461 | 18 ft | 21 kts | 258° |
| 2026-05-07 21:11 | 43.66405 | 7.21229 | 20 ft | 4 kts | 350° |
| 2026-05-07 21:12 | 43.66416 | 7.21226 | 22 ft | 0 kts | 349° |